Time;durP1;ratioP1;P1;durP2;ratioP2;P2;SDS_P1;SDS_P2;PMS_P1;PMS_P2;Temp;Humidity;BMP_temperature;BMP_pressure;BME280_temperature;BME280_humidity;BME280_pressure;Samples;Min_cycle;Max_cycle;Signal;HPM_P1;HPM_P2
2021/01/03 00:01:11;;;;;;;10.50;7.60;;;;;;;4.97;71.31;95553.78;5072052;28;20425;-58
2021/01/03 00:03:38;;;;;;;8.37;7.10;;;;;;;4.95;71.20;95554.97;5071650;28;20858;-58
2021/01/03 00:06:05;;;;;;;9.63;8.20;;;;;;;4.92;71.50;95555.41;5071884;28;20420;-66
2021/01/03 00:08:31;;;;;;;9.27;7.63;;;;;;;4.97;70.80;95550.38;5071693;28;20461;-61
2021/01/03 00:10:56;;;;;;;7.93;7.13;;;;;;;4.77;71.05;95555.72;5071396;28;20450;-63
2021/01/03 00:13:22;;;;;;;8.30;7.43;;;;;;;4.79;71.75;95545.09;5071926;28;20699;-57
2021/01/03 00:15:47;;;;;;;8.77;7.93;;;;;;;4.78;71.28;95554.69;5070848;28;20185;-66
2021/01/03 00:18:12;;;;;;;8.07;7.20;;;;;;;4.73;71.60;95551.16;5072926;28;20610;-57
2021/01/03 00:20:38;;;;;;;7.90;7.10;;;;;;;4.69;71.90;95548.13;5075054;28;20201;-67
2021/01/03 00:23:04;;;;;;;7.07;6.37;;;;;;;4.82;71.82;95544.69;5075243;28;20163;-67
2021/01/03 00:25:30;;;;;;;7.30;6.60;;;;;;;4.74;71.64;95552.72;5056988;28;20544;-57
2021/01/03 00:27:56;;;;;;;7.20;6.50;;;;;;;4.74;71.29;95542.31;5074717;28;20431;-67
2021/01/03 00:30:26;;;;;;;7.20;6.50;;;;;;;4.85;71.33;95547.66;5075065;28;20428;-58
2021/01/03 00:32:52;;;;;;;8.77;7.00;;;;;;;4.71;71.55;95546.13;5074637;28;20649;-67
2021/01/03 00:35:24;;;;;;;8.00;6.80;;;;;;;4.72;71.08;95542.53;5074968;28;20468;-66
2021/01/03 00:37:49;;;;;;;7.23;6.50;;;;;;;4.69;70.82;95549.97;5071172;28;20423;-67
2021/01/03 00:40:18;;;;;;;8.37;7.57;;;;;;;4.78;71.49;95548.72;5074986;28;20432;-57
2021/01/03 00:42:43;;;;;;;8.77;7.33;;;;;;;4.79;70.73;95545.88;5075059;28;20180;-57
2021/01/03 00:45:10;;;;;;;8.93;7.37;;;;;;;4.73;71.51;95548.53;5074242;28;20421;-58
2021/01/03 00:47:36;;;;;;;8.50;7.50;;;;;;;4.77;70.83;95547.91;5074396;28;20635;-67
2021/01/03 00:50:06;;;;;;;9.27;8.00;;;;;;;4.79;71.32;95550.28;5074778;28;20905;-67
2021/01/03 00:52:32;;;;;;;7.87;7.07;;;;;;;4.67;70.35;95544.16;5074570;28;20442;-67
2021/01/03 00:54:57;;;;;;;8.37;7.57;;;;;;;4.75;71.50;95549.09;5074660;28;20808;-67
2021/01/03 00:57:22;;;;;;;10.47;7.90;;;;;;;4.75;70.83;95549.09;5073789;28;20188;-58
2021/01/03 00:59:48;;;;;;;10.93;7.60;;;;;;;4.62;71.33;95546.59;5073975;28;20198;-58
2021/01/03 01:02:13;;;;;;;7.83;7.03;;;;;;;4.64;70.85;95544.59;5074735;28;20175;-58
2021/01/03 01:04:38;;;;;;;8.77;8.00;;;;;;;4.67;71.46;95551.97;5074520;28;20165;-67
2021/01/03 01:07:04;;;;;;;9.57;7.40;;;;;;;4.81;71.29;95543.06;5054943;28;20181;-67
2021/01/03 01:09:29;;;;;;;8.77;7.83;;;;;;;4.63;71.51;95540.38;5073938;28;20197;-58
2021/01/03 01:11:55;;;;;;;8.47;7.53;;;;;;;4.70;71.58;95543.75;5073757;28;20182;-67
2021/01/03 01:14:20;;;;;;;8.33;7.47;;;;;;;4.62;71.70;95552.59;5073567;28;20199;-59
2021/01/03 01:16:46;;;;;;;7.70;6.90;;;;;;;4.58;71.60;95548.03;5073549;28;20187;-67
2021/01/03 01:19:11;;;;;;;7.70;7.00;;;;;;;4.65;71.96;95548.78;5074154;28;20575;-67
2021/01/03 01:21:37;;;;;;;8.97;8.07;;;;;;;4.68;70.52;95543.94;5074338;28;20506;-57
2021/01/03 01:24:02;;;;;;;9.87;7.53;;;;;;;4.73;70.97;95545.94;5073599;28;20188;-58
2021/01/03 01:26:28;;;;;;;8.50;6.87;;;;;;;4.61;71.19;95551.00;5073402;28;20227;-57
2021/01/03 01:28:53;;;;;;;7.90;7.10;;;;;;;4.70;71.49;95547.16;5073768;28;20638;-57
2021/01/03 01:31:19;;;;;;;10.27;7.00;;;;;;;4.68;71.48;95546.56;5073548;28;20207;-57
2021/01/03 01:33:44;;;;;;;8.37;7.57;;;;;;;4.73;71.08;95545.94;5073318;28;20204;-57
2021/01/03 01:36:10;;;;;;;9.27;8.00;;;;;;;4.61;70.66;95550.19;5073468;28;20170;-67
2021/01/03 01:38:35;;;;;;;9.07;7.23;;;;;;;4.59;71.49;95549.59;5073552;28;20744;-67
2021/01/03 01:41:01;;;;;;;8.97;8.07;;;;;;;4.67;70.76;95557.97;5055830;28;20284;-58
2021/01/03 01:43:26;;;;;;;7.77;7.07;;;;;;;4.70;71.52;95557.56;5073615;28;20176;-67
2021/01/03 01:45:52;;;;;;;7.87;7.10;;;;;;;4.63;70.69;95561.19;5071994;28;20181;-57
2021/01/03 01:48:26;;;;;;;9.20;7.87;;;;;;;4.65;70.91;95548.78;5073186;28;20665;-67
2021/01/03 01:51:05;;;;;;;10.93;8.93;;;;;;;4.71;70.48;95553.16;5073288;28;20201;-57
2021/01/03 01:53:37;;;;;;;7.93;7.20;;;;;;;4.75;70.88;95554.31;5073561;28;20947;-67
2021/01/03 01:56:14;;;;;;;7.93;7.13;;;;;;;4.78;71.11;95556.50;5073673;28;20440;-67
2021/01/03 01:58:55;;;;;;;8.00;7.30;;;;;;;4.67;70.89;95554.56;5073024;28;20453;-67
2021/01/03 02:01:28;;;;;;;9.00;8.17;;;;;;;4.55;71.74;95544.03;5073564;28;20449;-57
2021/01/03 02:04:08;;;;;;;8.60;7.67;;;;;;;4.56;71.62;95556.03;5073822;28;20392;-67
2021/01/03 02:06:43;;;;;;;11.50;7.97;;;;;;;4.61;71.25;95550.19;5071573;28;20890;-67
2021/01/03 02:09:26;;;;;;;9.57;8.50;;;;;;;4.66;71.66;95552.97;5073448;28;20407;-67
2021/01/03 02:12:08;;;;;;;10.30;8.43;;;;;;;4.62;72.10;95549.22;5073760;28;20432;-67
2021/01/03 02:14:34;;;;;;;10.00;8.60;;;;;;;4.59;72.12;95549.59;5073477;28;20489;-58
2021/01/03 02:16:59;;;;;;;9.00;7.67;;;;;;;4.70;72.05;95557.56;5072926;28;20495;-67
2021/01/03 02:19:25;;;;;;;10.30;7.73;;;;;;;4.59;72.38;95544.41;5072710;28;20204;-58
2021/01/03 02:22:02;;;;;;;9.37;8.30;;;;;;;4.55;72.92;95551.81;5073245;28;20201;-58
2021/01/03 02:24:48;;;;;;;9.83;8.77;;;;;;;4.51;72.26;95548.03;5073291;28;20169;-58
2021/01/03 02:27:28;;;;;;;8.87;7.97;;;;;;;4.41;73.58;95559.91;5072256;28;20544;-68
2021/01/03 02:29:57;;;;;;;9.33;8.03;;;;;;;4.37;73.68;95558.72;5073170;28;20556;-67
2021/01/03 02:32:24;;;;;;;9.90;8.70;;;;;;;4.47;73.47;95556.47;5072929;28;20811;-57
2021/01/03 02:34:52;;;;;;;9.87;8.07;;;;;;;4.45;73.83;95548.88;5073195;28;20803;-67
2021/01/03 02:37:45;;;;;;;10.33;9.17;;;;;;;4.49;73.95;95555.28;5072651;28;20420;-67
2021/01/03 02:40:20;;;;;;;11.57;9.10;;;;;;;4.55;73.36;95551.81;5069998;28;20536;-67
2021/01/03 02:42:45;;;;;;;11.10;10.00;;;;;;;4.53;73.66;95553.06;5072937;28;20433;-67
2021/01/03 02:45:26;;;;;;;10.20;9.30;;;;;;;4.54;73.97;95549.44;5073310;28;20495;-67
2021/01/03 02:47:52;;;;;;;10.00;8.93;;;;;;;4.64;73.71;95547.19;5072761;28;20185;-66
2021/01/03 02:50:23;;;;;;;10.17;9.17;;;;;;;4.63;74.21;95551.59;5072816;28;20477;-67
2021/01/03 02:52:50;;;;;;;11.43;9.97;;;;;;;4.68;73.72;95550.94;5073086;28;20932;-67
2021/01/03 02:55:16;;;;;;;10.53;9.43;;;;;;;4.62;73.13;95551.81;5073060;28;20399;-67
2021/01/03 02:57:42;;;;;;;12.10;9.57;;;;;;;4.56;74.35;95550.84;5072603;28;20460;-67
2021/01/03 03:00:30;;;;;;;11.60;9.60;;;;;;;4.59;74.53;95547.00;5072720;28;20431;-67
2021/01/03 03:02:56;;;;;;;10.60;9.50;;;;;;;4.69;74.40;95542.94;5073165;28;20897;-66
2021/01/03 03:05:22;;;;;;;11.90;8.77;;;;;;;4.68;73.82;95546.56;5072584;28;20444;-57
2021/01/03 03:07:48;;;;;;;10.73;9.63;;;;;;;4.68;74.48;95537.94;5072376;28;20181;-67
2021/01/03 03:10:15;;;;;;;10.90;9.27;;;;;;;4.61;74.80;95548.41;5072498;28;20486;-57
2021/01/03 03:12:40;;;;;;;11.57;9.90;;;;;;;4.47;75.29;95543.47;5072467;28;20568;-66
2021/01/03 03:15:10;;;;;;;11.90;9.70;;;;;;;4.43;75.43;95539.69;5072979;28;20433;-66
2021/01/03 03:17:35;;;;;;;12.47;9.97;;;;;;;4.54;75.63;95541.63;5072267;28;20179;-57
2021/01/03 03:20:01;;;;;;;10.50;9.27;;;;;;;4.58;75.24;95535.00;5072666;28;20428;-67
2021/01/03 03:22:26;;;;;;;10.90;9.47;;;;;;;4.62;75.24;95539.56;5072788;28;20174;-66
2021/01/03 03:24:52;;;;;;;12.07;9.87;;;;;;;4.66;74.69;95538.16;5072360;28;20174;-57
2021/01/03 03:27:17;;;;;;;10.53;9.40;;;;;;;4.52;74.60;95534.03;5072376;28;20508;-57
2021/01/03 03:29:42;;;;;;;10.87;9.53;;;;;;;4.55;75.01;95536.22;5072158;28;20205;-66
2021/01/03 03:32:08;;;;;;;12.50;10.40;;;;;;;4.60;74.83;95533.00;5075568;28;20518;-57
2021/01/03 03:34:33;;;;;;;10.27;9.27;;;;;;;4.34;75.06;95530.53;5076143;28;20275;-57
2021/01/03 03:36:59;;;;;;;10.70;9.40;;;;;;;4.26;76.06;95536.00;5057852;28;20179;-66
2021/01/03 03:39:26;;;;;;;11.07;9.53;;;;;;;4.08;77.05;95536.63;5075815;28;20271;-57
2021/01/03 03:41:59;;;;;;;12.73;10.03;;;;;;;4.09;77.00;95535.66;5075836;28;20172;-56
2021/01/03 03:44:26;;;;;;;11.47;9.57;;;;;;;4.17;76.60;95543.19;5076502;28;20814;-67
2021/01/03 03:47:03;;;;;;;11.20;10.03;;;;;;;4.22;76.82;95532.19;5075638;28;20412;-67
2021/01/03 03:49:30;;;;;;;9.33;8.43;;;;;;;4.13;76.93;95532.41;5075378;28;20445;-67
2021/01/03 03:51:57;;;;;;;10.83;8.53;;;;;;;4.13;76.86;95534.25;5076040;28;20411;-57
2021/01/03 03:54:23;;;;;;;12.03;10.87;;;;;;;4.26;77.14;95520.38;5075300;28;20455;-57
2021/01/03 03:56:56;;;;;;;9.93;8.93;;;;;;;4.26;77.03;95521.16;5057375;28;20783;-66
2021/01/03 03:59:23;;;;;;;11.20;8.90;;;;;;;4.31;76.63;95518.75;5075779;28;20419;-57
2021/01/03 04:01:48;;;;;;;9.90;8.83;;;;;;;4.18;76.84;95521.41;5075820;28;20825;-67
2021/01/03 04:04:15;;;;;;;10.87;9.77;;;;;;;4.20;77.64;95515.00;5075680;28;20441;-58
2021/01/03 04:06:40;;;;;;;12.23;10.20;;;;;;;4.26;77.17;95515.97;5075563;28;20170;-67
2021/01/03 04:09:06;;;;;;;11.97;9.77;;;;;;;4.35;76.42;95513.94;5075304;28;20799;-58
2021/01/03 04:11:32;;;;;;;12.70;9.50;;;;;;;4.29;77.26;95512.97;5074812;28;20189;-66
2021/01/03 04:13:58;;;;;;;10.57;9.47;;;;;;;4.35;76.52;95513.94;5075475;28;20458;-57
2021/01/03 04:16:24;;;;;;;10.80;9.67;;;;;;;4.31;77.00;95510.97;5075202;28;20491;-66
2021/01/03 04:18:49;;;;;;;11.20;10.00;;;;;;;4.29;77.01;95512.97;5075569;28;20168;-66
2021/01/03 04:21:15;;;;;;;11.87;10.43;;;;;;;4.20;77.06;95507.19;5075281;28;20664;-57
2021/01/03 04:23:43;;;;;;;11.73;10.13;;;;;;;4.08;78.00;95515.84;5075514;28;20194;-66
2021/01/03 04:26:16;;;;;;;10.80;9.67;;;;;;;4.03;78.08;95519.06;5074431;28;20216;-58
2021/01/03 04:28:41;;;;;;;11.10;9.93;;;;;;;4.05;77.89;95519.66;5075055;28;20446;-58
2021/01/03 04:31:06;;;;;;;12.80;11.13;;;;;;;4.14;77.68;95517.63;5075186;28;20422;-57
2021/01/03 04:33:32;;;;;;;10.03;9.03;;;;;;;4.01;77.86;95526.28;5075223;28;20193;-58
2021/01/03 04:35:57;;;;;;;12.53;10.17;;;;;;;3.99;78.47;95528.28;5075278;28;20303;-57
2021/01/03 04:38:22;;;;;;;11.23;10.03;;;;;;;4.00;78.22;95523.88;5073993;28;20643;-66
2021/01/03 04:40:54;;;;;;;12.00;10.70;;;;;;;4.06;78.32;95525.66;5074906;28;20216;-66
2021/01/03 04:43:20;;;;;;;13.60;10.63;;;;;;;4.13;77.75;95529.03;5074130;28;20498;-57
2021/01/03 04:45:47;;;;;;;12.10;9.80;;;;;;;3.95;78.12;95534.88;5075021;28;20414;-66
2021/01/03 04:48:17;;;;;;;12.77;11.10;;;;;;;3.74;79.63;95539.53;5074572;28;20400;-66
2021/01/03 04:51:40;;;;;;;12.43;11.23;;;;;;;3.96;79.19;95533.91;5074771;28;20941;-66
2021/01/03 04:54:18;;;;;;;10.63;9.53;;;;;;;3.89;78.92;95540.91;4982009;28;20471;-57
2021/01/03 04:56:46;;;;;;;12.27;10.10;;;;;;;4.04;78.66;95543.28;4989235;28;20427;-66
2021/01/03 04:59:15;;;;;;;11.63;10.03;;;;;;;3.94;78.68;95535.09;5027953;28;20417;-66
2021/01/03 05:02:16;;;;;;;11.93;10.47;;;;;;;3.94;79.15;95533.31;5054614;28;20491;-57
2021/01/03 05:04:57;;;;;;;11.77;9.80;;;;;;;3.99;78.62;95537.88;5054745;28;20398;-66
2021/01/03 05:07:30;;;;;;;12.17;10.70;;;;;;;3.78;79.51;95541.53;5069686;28;20426;-57
2021/01/03 05:10:22;;;;;;;12.57;10.53;;;;;;;3.89;79.69;95543.50;5073744;28;20446;-57
2021/01/03 05:13:05;;;;;;;11.97;10.00;;;;;;;3.93;79.26;95542.09;5054388;28;20425;-66
2021/01/03 05:15:33;;;;;;;11.13;9.93;;;;;;;3.85;79.42;95538.91;5054515;28;20406;-67
2021/01/03 05:17:59;;;;;;;13.37;9.60;;;;;;;3.84;80.11;95550.31;5053858;28;20847;-58
2021/01/03 05:20:25;;;;;;;11.67;10.10;;;;;;;3.90;79.40;95552.88;5055909;28;20435;-66
2021/01/03 05:22:50;;;;;;;13.20;10.40;;;;;;;3.89;79.15;95547.91;5074043;28;20515;-57
2021/01/03 05:25:18;;;;;;;11.40;10.20;;;;;;;3.92;79.07;95539.69;5073962;28;20666;-57
2021/01/03 05:28:02;;;;;;;12.30;11.00;;;;;;;4.03;78.71;95547.66;5073555;28;20185;-58
2021/01/03 05:30:28;;;;;;;12.13;10.77;;;;;;;3.77;79.60;95545.13;5073902;28;20430;-66
2021/01/03 05:33:11;;;;;;;12.30;10.57;;;;;;;3.83;79.45;95543.50;5073901;28;20407;-57
2021/01/03 05:35:40;;;;;;;11.97;10.27;;;;;;;3.84;80.33;95545.91;5073458;28;20422;-66
2021/01/03 05:38:07;;;;;;;12.13;10.77;;;;;;;3.89;79.88;95543.50;5073399;28;20412;-66
2021/01/03 05:40:37;;;;;;;13.20;10.80;;;;;;;3.96;79.93;95546.88;5053799;28;20435;-57
2021/01/03 05:43:17;;;;;;;12.67;10.70;;;;;;;3.90;79.60;95541.69;5054531;28;20443;-66
2021/01/03 05:46:13;;;;;;;11.73;9.90;;;;;;;3.77;79.81;95539.94;5054000;28;20865;-66
2021/01/03 05:49:03;;;;;;;13.17;10.87;;;;;;;3.91;79.96;95540.72;5070656;28;20506;-66
2021/01/03 05:51:46;;;;;;;11.80;10.23;;;;;;;3.94;79.71;95541.09;5073867;28;20450;-57
2021/01/03 05:54:22;;;;;;;15.03;11.77;;;;;;;4.02;79.00;95548.66;5073103;28;20456;-57
2021/01/03 05:56:49;;;;;;;15.27;11.30;;;;;;;3.84;79.88;95542.53;5073456;28;20396;-57
2021/01/03 05:59:26;;;;;;;13.17;11.70;;;;;;;3.96;80.26;95546.09;5073681;28;20409;-66
2021/01/03 06:02:09;;;;;;;14.30;12.80;;;;;;;4.02;79.46;95546.06;5073461;28;20477;-57
2021/01/03 06:04:34;;;;;;;16.33;13.20;;;;;;;4.11;79.03;95542.22;5073654;28;20403;-57
2021/01/03 06:07:27;;;;;;;16.37;11.97;;;;;;;4.14;79.79;95544.44;5072669;28;20426;-66
2021/01/03 06:09:52;;;;;;;12.80;11.10;;;;;;;4.08;79.24;95547.03;5072468;28;20704;-57
2021/01/03 06:12:25;;;;;;;13.60;11.07;;;;;;;4.04;79.62;95543.28;5073105;28;20428;-57
2021/01/03 06:15:04;;;;;;;13.40;10.90;;;;;;;3.70;80.13;95548.72;5073549;28;20198;-66
2021/01/03 06:17:45;;;;;;;15.20;12.57;;;;;;;3.82;80.58;95545.31;5072951;28;20786;-66
2021/01/03 06:20:20;;;;;;;14.60;12.03;;;;;;;3.80;80.17;95544.75;5073314;28;20538;-66
2021/01/03 06:22:51;;;;;;;15.10;11.60;;;;;;;4.00;79.38;95552.47;5072594;28;20436;-57
2021/01/03 06:25:25;;;;;;;15.20;12.47;;;;;;;3.99;80.02;95553.47;5073351;28;20407;-57
2021/01/03 06:27:51;;;;;;;14.50;11.30;;;;;;;3.94;79.52;95551.50;5073102;28;20410;-57
2021/01/03 06:30:22;;;;;;;16.80;12.90;;;;;;;3.97;79.94;95542.47;5072915;28;20451;-66
2021/01/03 06:32:50;;;;;;;15.80;12.93;;;;;;;4.13;79.05;95545.41;5073121;28;20180;-56
2021/01/03 06:35:30;;;;;;;16.93;13.80;;;;;;;4.05;79.32;95547.44;5073176;28;20446;-57
2021/01/03 06:38:26;;;;;;;16.27;13.10;;;;;;;4.17;78.99;95544.00;5072736;28;20460;-66
2021/01/03 06:41:07;;;;;;;15.30;12.67;;;;;;;4.09;79.09;95543.44;5073228;28;21013;-66
2021/01/03 06:44:01;;;;;;;14.70;12.30;;;;;;;3.97;78.94;95542.47;5073267;28;20405;-66
2021/01/03 06:46:52;;;;;;;16.57;12.53;;;;;;;3.87;80.21;95545.53;5072437;28;20455;-66
2021/01/03 06:49:42;;;;;;;16.13;13.00;;;;;;;3.87;80.58;95542.91;5073163;28;20518;-66
2021/01/03 06:52:13;;;;;;;13.93;12.33;;;;;;;4.02;79.25;95553.06;5072534;28;20912;-66
2021/01/03 06:54:57;;;;;;;14.93;12.63;;;;;;;4.06;79.86;95559.44;5073140;28;20892;-57
2021/01/03 06:57:43;;;;;;;14.77;12.40;;;;;;;4.05;79.50;95552.66;5072346;28;20458;-66
2021/01/03 07:00:12;;;;;;;15.97;13.13;;;;;;;4.00;79.60;95555.84;5072283;28;20478;-57
2021/01/03 07:02:48;;;;;;;14.70;12.60;;;;;;;4.09;79.34;95557.22;5072905;28;20502;-66
2021/01/03 07:05:14;;;;;;;16.17;13.23;;;;;;;4.22;79.23;95555.59;5073191;28;20391;-57
2021/01/03 07:07:44;;;;;;;18.63;13.70;;;;;;;4.29;78.35;95564.16;5076049;28;20407;-66
2021/01/03 07:10:38;;;;;;;15.83;12.93;;;;;;;4.20;78.14;95564.38;5076398;28;20531;-66
2021/01/03 07:13:29;;;;;;;16.20;13.60;;;;;;;4.26;78.77;95561.97;5067176;28;20966;-57
2021/01/03 07:16:03;;;;;;;16.07;12.83;;;;;;;4.34;78.35;95572.94;5076906;28;20485;-66
2021/01/03 07:18:38;;;;;;;16.67;13.00;;;;;;;4.33;78.20;95566.13;5075797;28;20424;-58
2021/01/03 07:21:03;;;;;;;13.50;11.57;;;;;;;4.17;78.66;95572.59;5076617;28;20424;-57
2021/01/03 07:23:49;;;;;;;13.33;12.03;;;;;;;4.23;78.53;95568.38;5076353;28;20448;-65
2021/01/03 07:26:20;;;;;;;13.47;11.30;;;;;;;4.27;78.49;95569.56;5072916;28;20209;-66
2021/01/03 07:29:10;;;;;;;13.17;10.93;;;;;;;4.28;78.32;95567.75;5076520;28;20430;-66
2021/01/03 07:31:36;;;;;;;14.20;12.70;;;;;;;4.19;78.06;95572.38;5062634;28;20465;-66
2021/01/03 07:34:10;;;;;;;14.87;11.73;;;;;;;4.21;78.36;95575.56;5075584;28;20949;-57
2021/01/03 07:37:18;;;;;;;13.03;11.27;;;;;;;4.17;78.04;95576.97;5075546;28;20605;-57
2021/01/03 07:39:58;;;;;;;15.20;11.40;;;;;;;4.20;78.32;95574.78;5063043;28;20440;-57
2021/01/03 07:42:27;;;;;;;12.27;11.00;;;;;;;4.26;78.06;95580.19;5076143;28;20404;-67
2021/01/03 07:44:54;;;;;;;14.47;11.47;;;;;;;4.24;78.14;95584.78;5076191;28;20397;-66
2021/01/03 07:47:34;;;;;;;12.93;11.20;;;;;;;4.10;78.41;95584.00;5075658;28;20418;-66
2021/01/03 07:50:38;;;;;;;13.03;11.67;;;;;;;4.17;78.33;95588.19;5076007;28;20432;-59
2021/01/03 07:53:23;;;;;;;13.70;11.70;;;;;;;4.17;77.44;95588.19;5069928;28;20481;-57
2021/01/03 07:55:48;;;;;;;11.60;10.10;;;;;;;4.02;78.61;95592.81;5075657;28;20510;-66
2021/01/03 07:58:18;;;;;;;12.07;10.57;;;;;;;4.15;78.66;95585.00;5075465;28;20492;-67
2021/01/03 08:00:50;;;;;;;13.77;11.50;;;;;;;4.27;78.43;95589.56;5075958;28;20327;-66
2021/01/03 08:03:18;;;;;;;15.20;11.30;;;;;;;4.29;77.39;95592.75;5076167;28;20400;-58
2021/01/03 08:05:45;;;;;;;14.13;11.10;;;;;;;4.28;77.03;95594.53;5075763;28;20413;-58
2021/01/03 08:08:18;;;;;;;13.27;11.73;;;;;;;4.14;78.09;95587.81;5074895;28;20917;-66
2021/01/03 08:10:45;;;;;;;14.43;11.57;;;;;;;4.07;78.60;95595.63;5074895;28;20450;-66
2021/01/03 08:13:17;;;;;;;14.57;12.00;;;;;;;4.20;78.68;95589.59;5075447;28;20448;-66
2021/01/03 08:15:43;;;;;;;13.90;11.03;;;;;;;4.33;78.86;95586.16;5075306;28;20434;-66
2021/01/03 08:18:18;;;;;;;14.83;12.00;;;;;;;4.30;78.49;95591.75;5074756;28;20408;-66
2021/01/03 08:20:44;;;;;;;12.10;10.80;;;;;;;4.30;78.33;95597.75;5075532;28;20199;-59
2021/01/03 08:23:29;;;;;;;15.47;12.40;;;;;;;4.38;77.69;95592.31;5075582;28;20399;-57
2021/01/03 08:26:23;;;;;;;13.53;11.30;;;;;;;4.14;78.17;95601.59;5075320;28;20425;-65
2021/01/03 08:29:16;;;;;;;15.47;11.30;;;;;;;4.23;78.09;95599.56;5072531;28;20452;-57
2021/01/03 08:31:54;;;;;;;13.03;10.80;;;;;;;4.23;77.93;95599.56;5074795;28;20926;-65
2021/01/03 08:34:32;;;;;;;11.67;10.40;;;;;;;4.32;77.41;95600.13;5074413;28;21023;-57
2021/01/03 08:36:58;;;;;;;15.20;11.53;;;;;;;4.29;77.53;95601.38;5074816;28;20414;-58
2021/01/03 08:39:26;;;;;;;14.03;11.23;;;;;;;4.27;77.00;95612.97;5075117;28;20440;-65
2021/01/03 08:42:04;;;;;;;13.30;11.10;;;;;;;4.30;77.65;95602.13;5074729;28;20927;-57
2021/01/03 08:44:35;;;;;;;13.37;9.90;;;;;;;4.03;78.24;95609.22;5074848;28;20418;-58
2021/01/03 08:47:04;;;;;;;13.03;10.93;;;;;;;4.04;78.17;95619.41;5074901;28;20770;-58
2021/01/03 08:49:30;;;;;;;17.40;13.80;;;;;;;4.03;78.97;95617.81;5074088;28;20451;-62
2021/01/03 08:52:05;;;;;;;16.00;13.43;;;;;;;3.98;78.59;95620.25;5074333;28;20427;-57
2021/01/03 08:54:31;;;;;;;16.03;12.00;;;;;;;3.94;78.51;95619.03;5074706;28;20192;-65
2021/01/03 08:56:56;;;;;;;15.50;12.90;;;;;;;3.84;78.99;95620.47;5074240;28;20473;-65
2021/01/03 08:59:21;;;;;;;15.13;10.43;;;;;;;3.99;78.80;95629.63;5074564;28;20219;-58
2021/01/03 09:01:48;;;;;;;16.63;12.90;;;;;;;4.01;79.34;95635.41;5074511;28;20178;-65
2021/01/03 09:04:17;;;;;;;16.60;12.30;;;;;;;4.09;78.53;95624.00;5074255;28;20212;-57
2021/01/03 09:06:43;;;;;;;15.50;12.37;;;;;;;4.15;79.18;95634.38;5073728;28;20423;-65
2021/01/03 09:09:18;;;;;;;13.67;10.40;;;;;;;4.13;77.57;95638.97;5073742;28;20455;-58
2021/01/03 09:12:00;;;;;;;15.73;12.00;;;;;;;4.21;77.56;95640.56;5072248;28;20783;-65
2021/01/03 09:14:48;;;;;;;13.90;10.50;;;;;;;4.26;76.82;95634.78;5074302;28;20450;-65
2021/01/03 09:17:29;;;;;;;14.83;12.10;;;;;;;4.22;77.69;95641.38;5073468;28;20431;-58
2021/01/03 09:20:00;;;;;;;15.90;12.10;;;;;;;4.30;77.54;95631.53;5072534;28;20811;-65
2021/01/03 09:22:29;;;;;;;12.37;9.87;;;;;;;4.33;77.39;95643.34;5073549;28;20834;-57
2021/01/03 09:25:23;;;;;;;12.17;10.87;;;;;;;4.10;77.41;95648.97;5073502;28;20822;-65
2021/01/03 09:27:56;;;;;;;13.20;10.07;;;;;;;4.11;78.15;95648.78;5073349;28;20434;-65
2021/01/03 09:30:30;;;;;;;15.23;10.17;;;;;;;4.14;77.46;95651.00;5073321;28;20448;-65
2021/01/03 09:33:19;;;;;;;14.20;11.23;;;;;;;4.18;78.21;95652.16;5073274;28;20448;-65
2021/01/03 09:35:47;;;;;;;14.10;11.33;;;;;;;4.25;77.90;95649.56;5074277;28;20417;-65
2021/01/03 09:38:34;;;;;;;11.63;9.70;;;;;;;4.04;78.04;95653.19;5073505;28;20437;-57
2021/01/03 09:41:21;;;;;;;13.70;11.10;;;;;;;4.07;78.59;95650.22;5073717;28;20409;-65
2021/01/03 09:44:20;;;;;;;13.40;11.00;;;;;;;4.08;78.40;95657.00;5073706;28;20397;-64
2021/01/03 09:47:00;;;;;;;13.20;10.70;;;;;;;4.08;78.20;95659.59;5073375;28;20504;-58
2021/01/03 09:49:37;;;;;;;13.23;11.07;;;;;;;4.16;78.35;95654.19;5073464;28;20525;-65
2021/01/03 09:52:28;;;;;;;30.50;23.43;;;;;;;3.97;78.34;95660.19;5073657;28;20410;-60
2021/01/03 09:55:03;;;;;;;13.70;10.80;;;;;;;3.76;79.33;95655.22;5072994;28;20463;-60
2021/01/03 09:57:34;;;;;;;11.93;9.27;;;;;;;3.86;79.18;95654.84;5073215;28;20495;-65
2021/01/03 10:00:00;;;;;;;14.40;10.53;;;;;;;3.95;79.34;95644.00;5070417;28;20454;-61
2021/01/03 10:02:27;;;;;;;12.40;9.93;;;;;;;4.14;77.96;95645.78;5068908;28;20425;-58
2021/01/03 10:04:53;;;;;;;13.30;11.00;;;;;;;4.30;77.94;95647.13;5067645;28;20949;-61
2021/01/03 10:07:23;;;;;;;13.30;11.00;;;;;;;4.29;77.08;95647.34;5069265;28;20429;-62
2021/01/03 10:10:06;;;;;;;14.77;10.73;;;;;;;4.35;77.01;95647.31;5069004;28;20977;-63
2021/01/03 10:12:38;;;;;;;18.73;10.90;;;;;;;4.29;77.47;95647.34;5069671;28;20818;-64
2021/01/03 10:15:12;;;;;;;21.57;10.90;;;;;;;4.25;77.37;95646.16;5069203;28;20464;-59
2021/01/03 10:17:41;;;;;;;16.90;10.70;;;;;;;4.34;77.79;95643.13;5068956;28;20426;-66
2021/01/03 10:20:39;;;;;;;21.63;11.03;;;;;;;4.35;77.23;95641.34;5069550;28;20438;-64
2021/01/03 10:23:07;;;;;;;25.43;10.37;;;;;;;4.42;76.21;95644.72;5069124;28;20416;-59
2021/01/03 10:25:32;;;;;;;20.57;10.13;;;;;;;4.46;76.25;95640.69;5069261;28;21064;-59
2021/01/03 10:28:11;;;;;;;24.30;10.73;;;;;;;4.48;76.55;95639.47;5068852;28;20430;-62
2021/01/03 10:30:37;;;;;;;16.80;10.37;;;;;;;4.45;76.27;95636.50;5069135;28;20693;-59
2021/01/03 10:33:03;;;;;;;22.80;10.87;;;;;;;4.35;76.64;95633.53;5069084;28;20430;-65
2021/01/03 10:35:29;;;;;;;34.37;11.07;;;;;;;4.26;77.41;95630.34;5068961;28;20418;-59
2021/01/03 10:37:54;;;;;;;32.33;12.17;;;;;;;4.40;77.17;95633.72;5069266;28;20426;-63
2021/01/03 10:40:21;;;;;;;27.87;12.10;;;;;;;4.41;77.11;95632.69;5069121;28;20202;-66
2021/01/03 10:42:48;;;;;;;25.33;12.40;;;;;;;4.43;76.95;95628.09;5072922;28;20268;-61
2021/01/03 10:45:14;;;;;;;17.63;10.50;;;;;;;4.59;76.96;95627.63;5073657;28;20448;-59
2021/01/03 10:47:40;;;;;;;26.07;11.57;;;;;;;4.55;75.97;95621.28;5072458;28;20778;-66
2021/01/03 10:50:06;;;;;;;17.53;10.70;;;;;;;4.44;76.93;95627.88;5071909;28;20446;-67
2021/01/03 10:52:31;;;;;;;18.93;10.87;;;;;;;4.50;77.11;95621.06;5073805;28;20644;-59
2021/01/03 10:54:57;;;;;;;17.77;10.70;;;;;;;4.60;76.43;95622.22;5073224;28;20499;-59
2021/01/03 10:57:22;;;;;;;17.73;12.37;;;;;;;4.67;77.24;95619.59;5073020;28;20185;-59
2021/01/03 10:59:48;;;;;;;13.37;11.33;;;;;;;4.78;76.88;95611.16;5071939;28;20194;-55
2021/01/03 11:02:13;;;;;;;13.87;10.30;;;;;;;4.93;76.46;95612.44;5072857;28;20209;-59
2021/01/03 11:04:38;;;;;;;13.80;11.63;;;;;;;4.87;76.18;95622.91;5072783;28;20184;-57
2021/01/03 11:07:04;;;;;;;12.50;10.60;;;;;;;4.87;74.31;95618.47;5072805;28;20718;-56
2021/01/03 11:09:31;;;;;;;12.20;10.90;;;;;;;4.97;74.87;95620.63;5072840;28;20203;-59
2021/01/03 11:12:14;;;;;;;20.10;12.80;;;;;;;4.98;74.71;95623.03;5072329;28;20550;-60
2021/01/03 11:14:39;;;;;;;15.70;11.90;;;;;;;5.10;75.18;95618.78;5072995;28;20582;-60
2021/01/03 11:17:10;;;;;;;18.77;11.30;;;;;;;5.13;74.54;95609.72;5072636;28;20507;-60
2021/01/03 11:19:36;;;;;;;17.87;11.33;;;;;;;5.04;72.84;95614.38;5072353;28;20303;-60
2021/01/03 11:22:04;;;;;;;13.87;11.60;;;;;;;4.97;74.37;95607.63;5073012;28;20427;-55
2021/01/03 11:24:29;;;;;;;20.63;12.90;;;;;;;4.93;73.94;95615.06;5071654;28;20447;-55
2021/01/03 11:26:55;;;;;;;14.57;12.10;;;;;;;5.09;73.77;95605.97;5072589;28;20450;-59
2021/01/03 11:29:23;;;;;;;12.17;10.60;;;;;;;5.15;73.90;95610.31;5072446;28;20212;-59
2021/01/03 11:31:52;;;;;;;13.57;10.67;;;;;;;5.18;74.92;95612.53;5072363;28;20210;-56
2021/01/03 11:34:21;;;;;;;14.40;11.73;;;;;;;5.31;74.43;95606.41;5072770;28;20533;-56
2021/01/03 11:36:50;;;;;;;14.80;12.00;;;;;;;5.32;74.19;95608.00;5072056;28;20415;-58
2021/01/03 11:39:16;;;;;;;14.47;11.30;;;;;;;5.02;74.89;95608.59;5072086;28;20933;-58
2021/01/03 11:41:47;;;;;;;13.83;11.00;;;;;;;5.08;75.32;95606.97;5072682;28;20404;-57
2021/01/03 11:44:13;;;;;;;11.37;10.17;;;;;;;5.00;74.54;95609.84;5072240;28;20181;-59
2021/01/03 11:46:39;;;;;;;11.73;10.53;;;;;;;5.05;74.86;95602.19;5071947;28;20473;-59
2021/01/03 11:49:05;;;;;;;13.20;10.93;;;;;;;4.94;75.16;95605.44;5072125;28;20209;-57
2021/01/03 11:51:30;;;;;;;12.27;10.60;;;;;;;5.08;75.23;95599.16;5071653;28;20177;-57